Time;durP1;ratioP1;P1;durP2;ratioP2;P2;SDS_P1;SDS_P2;PMS_P1;PMS_P2;Temp;Humidity;BMP_temperature;BMP_pressure;BME280_temperature;BME280_humidity;BME280_pressure;Samples;Min_cycle;Max_cycle;Signal;HPM_P1;HPM_P2
2022/05/13 00:01:01;;;;;;;9.10;8.43;;;16.60;90.60;;;;;;5051629;28;20424;-65
2022/05/13 00:03:27;;;;;;;9.30;8.73;;;16.50;91.00;;;;;;5051940;28;20455;-65
2022/05/13 00:05:53;;;;;;;8.83;7.90;;;16.50;91.10;;;;;;5052779;28;20896;-65
2022/05/13 00:08:18;;;;;;;7.07;6.30;;;16.50;91.70;;;;;;5051075;28;20183;-66
2022/05/13 00:10:44;;;;;;;7.80;6.47;;;16.40;91.40;;;;;;5052105;28;20189;-65
2022/05/13 00:13:10;;;;;;;7.00;6.50;;;16.40;91.70;;;;;;5051384;28;20275;-65
2022/05/13 00:15:36;;;;;;;8.77;7.90;;;16.30;92.20;;;;;;5050857;28;20494;-65
2022/05/13 00:18:02;;;;;;;9.30;8.70;;;16.30;92.40;;;;;;5051346;28;20514;-65
2022/05/13 00:20:28;;;;;;;7.83;7.13;;;16.30;92.70;;;;;;5051814;28;20240;-65
2022/05/13 00:22:56;;;;;;;8.27;7.67;;;16.30;93.00;;;;;;5051044;28;20467;-66
2022/05/13 00:25:29;;;;;;;9.50;7.10;;;16.30;93.00;;;;;;5051669;28;20426;-66
2022/05/13 00:27:57;;;;;;;8.00;7.20;;;16.20;92.50;;;;;;5051442;28;20907;-65
2022/05/13 00:30:24;;;;;;;7.23;6.53;;;16.20;92.70;;;;;;5051335;28;20457;-65
2022/05/13 00:32:51;;;;;;;7.33;6.70;;;16.10;92.80;;;;;;5052368;28;20434;-65
2022/05/13 00:35:19;;;;;;;8.07;7.37;;;16.10;92.90;;;;;;5050257;28;20926;-67
2022/05/13 00:37:45;;;;;;;6.90;6.33;;;16.00;92.90;;;;;;5052333;28;20423;-65
2022/05/13 00:40:12;;;;;;;8.20;7.50;;;16.00;93.00;;;;;;5052280;28;20416;-65
2022/05/13 00:42:38;;;;;;;7.33;6.63;;;15.90;93.30;;;;;;5051326;28;20550;-65
2022/05/13 00:45:05;;;;;;;8.47;7.77;;;15.90;93.50;;;;;;5050713;28;20473;-66
2022/05/13 00:47:31;;;;;;;7.67;7.03;;;15.90;93.60;;;;;;5051280;28;20416;-65
2022/05/13 00:49:59;;;;;;;6.87;6.37;;;15.90;93.90;;;;;;5051206;28;20461;-65
2022/05/13 00:52:27;;;;;;;8.37;7.47;;;15.90;94.10;;;;;;5051062;28;20189;-65
2022/05/13 00:54:54;;;;;;;9.30;7.97;;;15.80;94.10;;;;;;5051674;28;20426;-65
2022/05/13 00:57:21;;;;;;;10.00;6.83;;;15.80;94.20;;;;;;5050966;28;20407;-66
2022/05/13 00:59:49;;;;;;;7.60;6.90;;;15.80;94.30;;;;;;5050865;28;20430;-65
2022/05/13 01:02:15;;;;;;;8.17;7.10;;;15.80;94.10;;;;;;5051679;28;20495;-71
2022/05/13 01:04:42;;;;;;;7.47;6.97;;;15.80;94.20;;;;;;5050620;28;20439;-65
2022/05/13 01:07:17;;;;;;;7.40;6.70;;;15.80;94.20;;;;;;5051911;28;20402;-65
2022/05/13 01:09:51;;;;;;;8.13;7.40;;;15.80;94.40;;;;;;5051713;28;20413;-66
2022/05/13 01:12:21;;;;;;;8.57;7.80;;;15.70;94.30;;;;;;5051460;28;20446;-71
2022/05/13 01:14:53;;;;;;;7.60;6.90;;;15.70;94.40;;;;;;5048871;28;20436;-66
2022/05/13 01:20:10;;;;;;;8.47;7.60;;;15.60;95.00;;;;;;5051648;28;20965;-65
2022/05/13 01:22:46;;;;;;;8.10;7.40;;;15.60;95.30;;;;;;5049730;28;20941;-65
2022/05/13 01:25:17;;;;;;;8.73;7.33;;;15.60;95.40;;;;;;5051857;28;20417;-65
2022/05/13 01:27:45;;;;;;;8.60;7.80;;;15.60;95.30;;;;;;5053282;28;20421;-65
2022/05/13 01:30:28;;;;;;;8.57;7.67;;;15.60;95.20;;;;;;5054641;28;20481;-65
2022/05/13 01:32:54;;;;;;;9.70;6.70;;;15.50;95.00;;;;;;5053583;28;20440;-65
2022/05/13 01:35:20;;;;;;;7.23;6.63;;;15.50;95.20;;;;;;5053774;28;20899;-72
2022/05/13 01:37:46;;;;;;;8.50;7.70;;;15.50;95.40;;;;;;5054345;28;20441;-65
2022/05/13 01:40:12;;;;;;;8.77;7.97;;;15.50;95.70;;;;;;5055428;28;20409;-66
2022/05/13 01:42:38;;;;;;;10.13;9.43;;;15.50;95.90;;;;;;5053643;28;20472;-66
2022/05/13 01:45:07;;;;;;;8.47;7.77;;;15.50;96.00;;;;;;5055426;28;20415;-65
2022/05/13 01:47:34;;;;;;;10.33;9.50;;;15.40;96.00;;;;;;5054327;28;20180;-65
2022/05/13 01:50:01;;;;;;;7.57;6.97;;;15.40;95.80;;;;;;5054968;28;20419;-66
2022/05/13 01:52:27;;;;;;;10.10;9.50;;;15.40;95.90;;;;;;5054513;28;20422;-66
2022/05/13 01:54:53;;;;;;;7.43;6.73;;;15.40;95.80;;;;;;5055227;28;20443;-65
2022/05/13 01:57:19;;;;;;;9.13;8.33;;;15.40;95.50;;;;;;5053917;28;20469;-71
2022/05/13 01:59:44;;;;;;;10.10;9.30;;;15.30;96.00;;;;;;5053623;28;20223;-65
2022/05/13 02:02:10;;;;;;;7.17;6.57;;;15.30;95.40;;;;;;5053984;28;20478;-65
2022/05/13 02:04:37;;;;;;;6.60;6.10;;;15.30;95.50;;;;;;5053189;28;20532;-65
2022/05/13 02:07:03;;;;;;;7.70;7.00;;;15.30;95.70;;;;;;5054758;28;20659;-65
2022/05/13 02:09:29;;;;;;;9.53;8.83;;;15.20;95.60;;;;;;5052253;28;20505;-66
2022/05/13 02:11:55;;;;;;;6.57;6.10;;;15.20;95.70;;;;;;5054937;28;20415;-66
2022/05/13 02:14:21;;;;;;;9.67;8.87;;;15.10;95.60;;;;;;5054230;28;20900;-71
2022/05/13 02:16:47;;;;;;;7.53;6.83;;;15.10;95.60;;;;;;5052940;28;20183;-66
2022/05/13 02:19:13;;;;;;;7.80;7.00;;;15.10;95.60;;;;;;5054726;28;20643;-65
2022/05/13 02:21:39;;;;;;;6.60;6.00;;;15.10;95.60;;;;;;5053271;28;21166;-65
2022/05/13 02:24:06;;;;;;;6.70;6.20;;;15.10;95.70;;;;;;5020154;28;20434;-65
2022/05/13 02:26:32;;;;;;;6.97;6.40;;;15.10;95.60;;;;;;5052833;28;20233;-66
2022/05/13 02:29:01;;;;;;;6.70;6.17;;;15.00;95.40;;;;;;5054548;28;20824;-65
2022/05/13 02:31:27;;;;;;;6.80;6.10;;;14.90;94.70;;;;;;5052272;28;20436;-65
2022/05/13 02:33:54;;;;;;;6.40;6.00;;;14.70;94.60;;;;;;5054291;28;20423;-65
2022/05/13 02:36:19;;;;;;;6.50;6.10;;;14.60;95.00;;;;;;5054348;28;20412;-71
2022/05/13 02:38:45;;;;;;;8.83;8.30;;;14.70;95.30;;;;;;5051235;28;20415;-65
2022/05/13 02:41:11;;;;;;;6.33;5.93;;;14.80;95.10;;;;;;5053115;28;20420;-65
2022/05/13 02:43:41;;;;;;;8.33;7.73;;;14.80;95.00;;;;;;5052260;28;20263;-65
2022/05/13 02:46:08;;;;;;;6.10;5.53;;;14.80;94.70;;;;;;5053341;28;20456;-65
2022/05/13 02:48:34;;;;;;;7.60;7.10;;;14.80;94.50;;;;;;5053303;28;20416;-65
2022/05/13 02:51:00;;;;;;;6.70;6.00;;;14.80;94.80;;;;;;5053765;28;20755;-65
2022/05/13 02:53:26;;;;;;;7.10;6.50;;;14.80;95.00;;;;;;5052274;28;20439;-66
2022/05/13 02:55:52;;;;;;;7.50;7.03;;;14.80;95.20;;;;;;5053845;28;20245;-65
2022/05/13 02:58:18;;;;;;;5.90;5.27;;;14.70;95.30;;;;;;5053737;28;20930;-65
2022/05/13 03:00:44;;;;;;;5.60;5.10;;;14.70;95.10;;;;;;5052037;28;20425;-65
2022/05/13 03:03:12;;;;;;;6.60;5.60;;;14.70;95.10;;;;;;5053617;28;20660;-65
2022/05/13 03:05:38;;;;;;;8.23;5.50;;;14.70;95.10;;;;;;5047238;28;20436;-65
2022/05/13 03:08:05;;;;;;;7.17;6.50;;;14.60;95.10;;;;;;5041209;28;20435;-67
2022/05/13 03:10:35;;;;;;;9.60;6.70;;;14.60;95.60;;;;;;5050455;28;20558;-67
2022/05/13 03:13:02;;;;;;;6.60;6.00;;;14.60;95.90;;;;;;5051387;28;20567;-67
2022/05/13 03:15:27;;;;;;;6.27;5.87;;;14.60;96.10;;;;;;5052758;28;20419;-67
2022/05/13 03:17:53;;;;;;;6.37;5.73;;;14.60;96.40;;;;;;5053564;28;20422;-67
2022/05/13 03:20:21;;;;;;;6.07;5.57;;;14.60;96.60;;;;;;5052929;28;20236;-67
2022/05/13 03:22:48;;;;;;;6.63;6.07;;;14.60;96.30;;;;;;5052675;28;20221;-67
2022/05/13 03:25:15;;;;;;;7.90;6.67;;;14.60;96.50;;;;;;5053661;28;20420;-67
2022/05/13 03:27:41;;;;;;;6.60;5.97;;;14.60;96.40;;;;;;5053220;28;20797;-67
2022/05/13 03:30:09;;;;;;;6.80;6.30;;;14.60;96.30;;;;;;5053406;28;20506;-67
2022/05/13 03:32:35;;;;;;;6.87;6.27;;;14.60;96.30;;;;;;5052102;28;20433;-67
2022/05/13 03:35:01;;;;;;;6.90;6.20;;;14.60;96.20;;;;;;5053432;28;20446;-67
2022/05/13 03:37:27;;;;;;;6.47;5.97;;;14.60;96.00;;;;;;5050758;28;20489;-67
2022/05/13 03:39:52;;;;;;;7.07;6.47;;;14.60;95.90;;;;;;5061098;28;20572;-67
2022/05/13 03:42:20;;;;;;;6.60;6.10;;;14.60;96.00;;;;;;5053063;28;20456;-67
2022/05/13 03:44:46;;;;;;;7.30;6.70;;;14.60;95.90;;;;;;5052399;28;20192;-67
2022/05/13 03:47:12;;;;;;;7.63;7.00;;;14.50;95.80;;;;;;5053240;28;20416;-67
2022/05/13 03:49:37;;;;;;;12.03;7.17;;;14.50;95.80;;;;;;5052669;28;20681;-67
2022/05/13 03:52:03;;;;;;;7.40;6.80;;;14.50;95.90;;;;;;5053162;28;20548;-67
2022/05/13 03:54:29;;;;;;;8.83;7.30;;;14.50;96.00;;;;;;5050121;28;20605;-67
2022/05/13 03:56:55;;;;;;;8.93;8.13;;;14.50;95.80;;;;;;5052899;28;20431;-67
2022/05/13 03:59:21;;;;;;;8.70;7.90;;;14.50;96.00;;;;;;5052980;28;20541;-66
2022/05/13 04:01:47;;;;;;;10.23;8.33;;;14.50;96.30;;;;;;5051109;28;20229;-66
2022/05/13 04:04:13;;;;;;;7.70;7.00;;;14.50;96.50;;;;;;5051730;28;20470;-67
2022/05/13 04:09:22;;;;;;;7.63;6.80;;;14.40;96.30;;;;;;5051967;28;20186;-66
2022/05/13 04:17:17;;;;;;;7.13;6.67;;;14.70;96.20;;;;;;5051115;28;20432;-67
2022/05/13 04:19:42;;;;;;;7.27;6.63;;;14.80;98.50;;;;;;5050971;28;20662;-66
2022/05/13 04:22:09;;;;;;;7.27;6.63;;;15.00;97.40;;;;;;5052452;28;20697;-66
2022/05/13 04:24:35;;;;;;;6.03;5.60;;;15.10;97.30;;;;;;5049409;28;20193;-65
2022/05/13 04:27:00;;;;;;;6.43;5.93;;;15.20;97.30;;;;;;5051669;28;20434;-65
2022/05/13 04:29:26;;;;;;;7.70;5.43;;;15.40;94.30;;;;;;5052133;28;20262;-68
2022/05/13 04:31:52;;;;;;;6.20;5.70;;;15.20;93.50;;;;;;5050461;28;20647;-64
2022/05/13 04:34:18;;;;;;;6.10;5.00;;;15.20;93.60;;;;;;5051203;28;20186;-65
2022/05/13 04:36:43;;;;;;;5.10;4.60;;;15.10;93.40;;;;;;5051074;28;20174;-66
2022/05/13 04:39:09;;;;;;;5.63;5.13;;;15.00;93.40;;;;;;5048466;28;20236;-67
2022/05/13 04:44:20;;;;;;;6.57;5.10;;;14.80;93.50;;;;;;5051288;28;20185;-66
2022/05/13 04:46:46;;;;;;;6.40;5.57;;;14.80;93.40;;;;;;5051286;28;20538;-66
2022/05/13 04:49:12;;;;;;;5.40;4.87;;;14.80;93.70;;;;;;5052176;28;20939;-67
2022/05/13 04:51:38;;;;;;;5.30;4.57;;;14.70;93.80;;;;;;5049964;28;20194;-66
2022/05/13 04:54:05;;;;;;;4.70;4.30;;;14.70;93.80;;;;;;5050565;28;20181;-65
2022/05/13 04:56:31;;;;;;;5.90;4.60;;;14.70;93.80;;;;;;5051499;28;20415;-69
2022/05/13 04:58:58;;;;;;;4.80;4.33;;;14.70;94.10;;;;;;5052164;28;20419;-65
2022/05/13 05:01:24;;;;;;;5.27;4.50;;;14.70;94.50;;;;;;5051688;28;20920;-65
2022/05/13 05:03:50;;;;;;;5.50;4.77;;;14.60;94.60;;;;;;5055425;28;20415;-66
2022/05/13 05:06:18;;;;;;;5.10;4.40;;;14.60;94.60;;;;;;5054637;28;20442;-66
2022/05/13 05:08:44;;;;;;;4.60;4.23;;;14.60;94.50;;;;;;5058509;28;20434;-65
2022/05/13 05:11:12;;;;;;;7.60;4.20;;;14.60;94.50;;;;;;5056409;28;20422;-66
2022/05/13 05:13:41;;;;;;;6.20;4.83;;;14.60;94.50;;;;;;5055356;28;20437;-65
2022/05/13 05:16:07;;;;;;;8.97;5.90;;;14.70;94.90;;;;;;5055230;28;20434;-66
2022/05/13 05:18:34;;;;;;;5.70;5.30;;;14.70;94.90;;;;;;5053520;28;20435;-70
2022/05/13 05:21:00;;;;;;;6.13;5.53;;;14.70;94.90;;;;;;5062140;28;20464;-66
2022/05/13 05:23:29;;;;;;;5.77;5.10;;;14.70;94.90;;;;;;5055942;28;20986;-65
2022/05/13 05:25:55;;;;;;;6.57;5.30;;;14.80;94.90;;;;;;5060517;28;20424;-66
2022/05/13 05:28:21;;;;;;;6.37;5.53;;;14.80;95.50;;;;;;5064399;28;20415;-66
2022/05/13 05:30:47;;;;;;;5.60;5.10;;;14.80;95.10;;;;;;5054658;28;20180;-66
2022/05/13 05:33:14;;;;;;;9.70;5.80;;;14.70;95.20;;;;;;5055430;28;20420;-65
2022/05/13 05:35:40;;;;;;;8.07;4.50;;;14.70;95.50;;;;;;5055009;28;20420;-66
2022/05/13 05:38:07;;;;;;;5.57;5.00;;;14.70;95.30;;;;;;5055891;28;20430;-65
2022/05/13 05:40:34;;;;;;;12.10;5.80;;;14.70;96.20;;;;;;5054929;28;20419;-69
2022/05/13 05:43:15;;;;;;;8.30;4.70;;;14.80;96.00;;;;;;5055353;28;20513;-65
2022/05/13 05:45:41;;;;;;;5.60;5.10;;;14.70;95.70;;;;;;5054975;28;20412;-66
2022/05/13 05:48:09;;;;;;;5.40;4.83;;;14.60;96.00;;;;;;5055236;28;20462;-66
2022/05/13 05:50:36;;;;;;;6.60;4.70;;;14.60;96.50;;;;;;5054321;28;20416;-70
2022/05/13 05:53:01;;;;;;;8.57;4.63;;;14.60;96.90;;;;;;5055471;28;20509;-66
2022/05/13 05:58:15;;;;;;;6.13;4.40;;;14.60;96.40;;;;;;5054153;28;20528;-66
2022/05/13 06:00:45;;;;;;;9.53;4.80;;;14.70;96.50;;;;;;5054155;28;20424;-66
2022/05/13 06:03:11;;;;;;;5.40;4.90;;;14.80;96.50;;;;;;5055088;28;20464;-66
2022/05/13 06:05:37;;;;;;;6.07;5.50;;;14.80;96.30;;;;;;5052911;28;20868;-67
2022/05/13 06:08:04;;;;;;;10.67;5.27;;;14.80;96.50;;;;;;5053940;28;20517;-67
2022/05/13 06:10:31;;;;;;;5.40;4.90;;;14.90;96.70;;;;;;5054817;28;20431;-66
2022/05/13 06:12:57;;;;;;;7.50;5.50;;;14.90;96.80;;;;;;5052925;28;20436;-66
2022/05/13 06:15:24;;;;;;;6.07;5.00;;;15.00;96.80;;;;;;5054650;28;20418;-66
2022/05/13 06:17:53;;;;;;;5.80;5.27;;;15.00;97.30;;;;;;5052554;28;20439;-66
2022/05/13 06:20:23;;;;;;;5.33;4.77;;;15.10;97.20;;;;;;5053020;28;21002;-66
2022/05/13 06:22:48;;;;;;;8.47;5.07;;;15.10;97.10;;;;;;5050767;28;20986;-66
2022/05/13 06:25:16;;;;;;;6.43;5.13;;;15.20;96.60;;;;;;5053211;28;20426;-66
2022/05/13 06:27:44;;;;;;;7.17;6.47;;;15.10;96.30;;;;;;5050461;28;20244;-67
2022/05/13 06:30:15;;;;;;;6.93;5.43;;;15.20;96.40;;;;;;5056919;28;20434;-68
2022/05/13 06:32:41;;;;;;;7.03;5.43;;;15.30;96.70;;;;;;5062802;28;20442;-66
2022/05/13 06:35:08;;;;;;;5.77;4.50;;;15.30;96.00;;;;;;5053451;28;20491;-66
2022/05/13 06:37:34;;;;;;;4.90;4.50;;;15.40;96.00;;;;;;5050930;28;20580;-69
2022/05/13 06:40:00;;;;;;;5.27;4.87;;;15.40;96.00;;;;;;5051938;28;20446;-66
2022/05/13 06:42:26;;;;;;;6.60;4.90;;;15.40;95.60;;;;;;5052806;28;20463;-66
2022/05/13 06:44:51;;;;;;;7.33;4.50;;;15.40;95.60;;;;;;5052832;28;20185;-67
2022/05/13 06:47:17;;;;;;;6.47;4.10;;;15.50;95.70;;;;;;5049095;28;20195;-66
2022/05/13 06:49:43;;;;;;;5.73;5.23;;;15.60;96.10;;;;;;5056729;28;20615;-66
2022/05/13 06:52:13;;;;;;;6.53;4.60;;;15.70;95.60;;;;;;5051098;28;20205;-68
2022/05/13 06:54:40;;;;;;;6.27;4.87;;;15.80;95.60;;;;;;5053888;28;20419;-67
2022/05/13 06:57:07;;;;;;;4.60;4.20;;;15.90;95.10;;;;;;5054654;28;20427;-66
2022/05/13 06:59:32;;;;;;;6.13;4.60;;;15.90;94.90;;;;;;5053653;28;20427;-66
2022/05/13 07:01:58;;;;;;;6.38;5.10;;;15.90;94.90;;;;;;5050295;28;20447;-66
2022/05/13 07:04:24;;;;;;;6.67;4.40;;;16.00;95.00;;;;;;5053127;28;20264;-66
2022/05/13 07:06:50;;;;;;;6.43;4.57;;;16.10;95.70;;;;;;5053665;28;20168;-65
2022/05/13 07:09:16;;;;;;;4.70;4.07;;;16.10;94.30;;;;;;5054220;28;20430;-65
2022/05/13 07:11:44;;;;;;;4.80;4.17;;;16.20;95.20;;;;;;5049582;28;20427;-68
2022/05/13 07:14:11;;;;;;;5.77;4.50;;;16.30;95.60;;;;;;5051373;28;20177;-65
2022/05/13 07:16:37;;;;;;;5.17;4.60;;;16.30;94.20;;;;;;5052751;28;20434;-68
2022/05/13 07:19:03;;;;;;;7.47;4.20;;;16.30;94.50;;;;;;5052396;28;20502;-66
2022/05/13 07:21:28;;;;;;;9.33;3.83;;;16.40;94.30;;;;;;5052932;28;20855;-66
2022/05/13 07:23:54;;;;;;;4.97;4.33;;;16.50;94.10;;;;;;5050513;28;20523;-66
2022/05/13 07:26:20;;;;;;;4.90;4.50;;;16.50;94.60;;;;;;5051416;28;20548;-66
2022/05/13 07:28:45;;;;;;;5.70;4.80;;;16.60;94.80;;;;;;5049841;28;20195;-69
2022/05/13 07:31:11;;;;;;;4.73;3.70;;;16.70;95.10;;;;;;5050871;28;20525;-66
2022/05/13 07:33:37;;;;;;;6.03;4.13;;;16.80;94.00;;;;;;5051938;28;20274;-72
2022/05/13 07:36:04;;;;;;;5.80;3.97;;;16.80;93.80;;;;;;5052783;28;20188;-66
2022/05/13 07:38:31;;;;;;;7.73;4.00;;;17.00;94.00;;;;;;5051823;28;20587;-67
2022/05/13 07:41:16;;;;;;;5.63;4.60;;;17.10;94.10;;;;;;5043524;28;21000;-66
2022/05/13 07:43:43;;;;;;;5.07;3.93;;;17.20;94.20;;;;;;5050651;28;20455;-66
2022/05/13 07:46:08;;;;;;;3.93;3.63;;;17.20;92.20;;;;;;5052895;28;20408;-67
2022/05/13 07:48:34;;;;;;;15.17;6.60;;;17.40;93.00;;;;;;5052845;28;20498;-65
2022/05/13 07:51:00;;;;;;;5.23;4.33;;;17.50;93.00;;;;;;5055774;28;20194;-66
2022/05/13 07:53:26;;;;;;;4.57;3.80;;;17.60;92.90;;;;;;5056937;28;20471;-66
2022/05/13 07:55:52;;;;;;;8.10;4.83;;;17.70;91.50;;;;;;5053001;28;20182;-66
2022/05/13 07:58:17;;;;;;;6.40;3.70;;;17.80;91.70;;;;;;5056958;28;20630;-66
2022/05/13 08:00:44;;;;;;;3.70;3.40;;;17.80;91.20;;;;;;5053905;28;20435;-67
2022/05/13 08:03:13;;;;;;;3.93;3.60;;;17.80;90.00;;;;;;5048843;28;20644;-66
2022/05/13 08:05:48;;;;;;;3.97;3.43;;;17.90;90.50;;;;;;5051242;28;20427;-67
2022/05/13 08:08:32;;;;;;;4.73;4.13;;;17.90;90.10;;;;;;5057593;28;20435;-66
2022/05/13 08:11:03;;;;;;;5.10;3.40;;;18.00;88.90;;;;;;5072270;28;20400;-65
2022/05/13 08:13:31;;;;;;;4.40;3.70;;;18.00;87.20;;;;;;5072696;28;20461;-67
2022/05/13 08:15:58;;;;;;;3.53;3.13;;;18.10;88.30;;;;;;5068691;28;20442;-67
2022/05/13 08:18:24;;;;;;;4.37;3.97;;;18.10;88.90;;;;;;5063075;28;20507;-69
2022/05/13 08:20:50;;;;;;;4.90;3.80;;;18.10;86.60;;;;;;5050066;28;20947;-67
2022/05/13 08:23:17;;;;;;;8.77;5.67;;;18.30;86.70;;;;;;5050529;28;20463;-67
2022/05/13 08:25:44;;;;;;;4.70;4.30;;;18.30;89.10;;;;;;5049869;28;20427;-67
2022/05/13 08:28:11;;;;;;;5.60;3.30;;;18.40;87.40;;;;;;5052126;28;20443;-66
2022/05/13 08:30:38;;;;;;;4.17;3.13;;;18.50;85.10;;;;;;5048920;28;20428;-68
2022/05/13 08:33:10;;;;;;;3.93;3.10;;;18.60;85.10;;;;;;5056251;28;21052;-68
2022/05/13 08:35:46;;;;;;;4.27;3.73;;;18.60;83.70;;;;;;5051787;28;20443;-68
2022/05/13 08:38:13;;;;;;;3.27;2.43;;;18.70;83.60;;;;;;5044437;28;20423;-68
2022/05/13 08:40:58;;;;;;;4.97;3.80;;;18.80;83.70;;;;;;5052230;28;20416;-68
2022/05/13 08:43:28;;;;;;;4.43;3.57;;;18.90;81.00;;;;;;5051635;28;20459;-68
2022/05/13 08:45:55;;;;;;;4.00;3.60;;;19.10;81.40;;;;;;5051226;28;20435;-68
2022/05/13 08:48:50;;;;;;;4.03;3.63;;;19.20;80.20;;;;;;5052441;28;20428;-67
2022/05/13 08:51:37;;;;;;;5.17;3.30;;;19.40;81.30;;;;;;5031446;28;20447;-68
2022/05/13 08:54:13;;;;;;;4.77;3.30;;;19.60;83.80;;;;;;5048931;28;20458;-67
2022/05/13 08:56:40;;;;;;;3.87;2.90;;;19.80;81.90;;;;;;5051465;28;20944;-68
2022/05/13 08:59:07;;;;;;;3.20;3.10;;;19.80;78.70;;;;;;5049735;28;20432;-69
2022/05/13 09:01:36;;;;;;;4.00;2.80;;;19.90;79.40;;;;;;5050288;28;20436;-66
2022/05/13 09:04:10;;;;;;;4.63;3.97;;;20.00;79.80;;;;;;5048818;28;20515;-66
2022/05/13 09:06:48;;;;;;;5.00;3.40;;;20.10;79.00;;;;;;5044873;28;20546;-66
2022/05/13 09:09:14;;;;;;;3.20;2.90;;;20.10;74.30;;;;;;5051419;28;20892;-66
2022/05/13 09:11:49;;;;;;;4.30;3.67;;;19.90;71.40;;;;;;5052285;28;20415;-66
2022/05/13 09:14:25;;;;;;;3.83;3.53;;;19.80;74.90;;;;;;5052325;28;20537;-67
2022/05/13 09:17:13;;;;;;;4.07;3.67;;;19.80;73.50;;;;;;5051487;28;20395;-66
2022/05/13 09:19:59;;;;;;;3.57;3.30;;;19.80;76.80;;;;;;5052031;28;20456;-66
2022/05/13 09:22:37;;;;;;;3.60;3.30;;;19.90;77.10;;;;;;5052262;28;20506;-66
2022/05/13 09:25:05;;;;;;;3.73;3.43;;;19.90;75.10;;;;;;5051722;28;20479;-66
2022/05/13 09:27:49;;;;;;;3.40;3.10;;;20.00;75.40;;;;;;5052029;28;20422;-66
2022/05/13 09:30:24;;;;;;;4.20;3.30;;;19.90;74.20;;;;;;5052178;28;20499;-66
2022/05/13 09:32:50;;;;;;;3.73;3.50;;;19.90;76.30;;;;;;5051485;28;20473;-66
2022/05/13 09:35:35;;;;;;;4.60;3.03;;;19.90;74.60;;;;;;5052025;28;20400;-66
2022/05/13 09:38:32;;;;;;;6.93;4.87;;;19.90;77.60;;;;;;5051437;28;20307;-66
2022/05/13 09:41:02;;;;;;;5.40;4.20;;;19.90;77.20;;;;;;5050972;28;20452;-66
2022/05/13 09:43:42;;;;;;;3.20;2.90;;;20.10;77.30;;;;;;5052149;28;20538;-66
2022/05/13 09:46:35;;;;;;;3.23;3.03;;;20.30;77.00;;;;;;5051762;28;20404;-66
2022/05/13 09:49:10;;;;;;;3.40;2.50;;;20.50;72.00;;;;;;5054883;28;20424;-66
2022/05/13 09:51:38;;;;;;;4.83;3.00;;;20.70;75.10;;;;;;5055638;28;20479;-66
2022/05/13 09:54:24;;;;;;;3.43;2.90;;;20.70;69.60;;;;;;5055129;28;20930;-66
2022/05/13 09:56:55;;;;;;;3.33;2.67;;;20.70;69.80;;;;;;5055464;28;20487;-66
2022/05/13 09:59:26;;;;;;;4.27;4.07;;;20.80;70.60;;;;;;5055362;28;20755;-66
2022/05/13 10:01:53;;;;;;;4.73;4.40;;;20.90;69.80;;;;;;5054834;28;20464;-66
2022/05/13 10:04:25;;;;;;;6.60;4.53;;;20.90;69.80;;;;;;5054259;28;20436;-66
2022/05/13 10:07:03;;;;;;;4.30;3.90;;;21.00;68.70;;;;;;5054810;28;20900;-66
2022/05/13 10:15:34;;;;;;;3.03;2.80;;;21.10;68.30;;;;;;5055398;28;20856;-66
2022/05/13 10:18:26;;;;;;;2.93;2.47;;;21.30;67.10;;;;;;5054579;28;20426;-67
2022/05/13 10:20:55;;;;;;;4.23;3.83;;;21.30;68.00;;;;;;5054227;28;20833;-67
2022/05/13 10:23:37;;;;;;;2.77;2.50;;;21.50;69.10;;;;;;5055091;28;20455;-66
2022/05/13 10:26:10;;;;;;;2.90;2.70;;;21.70;67.40;;;;;;5054535;28;20408;-68
2022/05/13 10:28:40;;;;;;;4.90;2.47;;;21.80;65.10;;;;;;5055251;28;20428;-66
2022/05/13 10:31:19;;;;;;;3.50;2.50;;;21.70;62.20;;;;;;5055326;28;20429;-66
2022/05/13 10:33:53;;;;;;;3.87;3.57;;;21.60;63.40;;;;;;5052718;28;20427;-66
2022/05/13 10:36:22;;;;;;;7.90;7.30;;;21.40;62.50;;;;;;5054112;28;20935;-66
2022/05/13 10:38:56;;;;;;;3.70;3.60;;;21.30;62.70;;;;;;5049130;28;20464;-66
2022/05/13 10:41:39;;;;;;;2.80;2.60;;;21.10;63.00;;;;;;5035121;28;20416;-66
2022/05/13 10:44:31;;;;;;;3.60;3.40;;;21.00;63.30;;;;;;5036211;28;20524;-67
2022/05/13 10:47:01;;;;;;;3.63;2.30;;;20.60;63.20;;;;;;5053298;28;20479;-66
2022/05/13 10:49:53;;;;;;;5.77;2.80;;;20.60;64.80;;;;;;5044885;28;20934;-66
2022/05/13 10:52:42;;;;;;;2.80;2.60;;;20.70;66.10;;;;;;5053376;28;20428;-66
2022/05/13 10:55:28;;;;;;;2.67;2.47;;;20.90;67.60;;;;;;5050892;28;20443;-67
2022/05/13 10:58:21;;;;;;;4.50;3.00;;;21.00;68.10;;;;;;5048534;28;20665;-66
2022/05/13 11:00:59;;;;;;;3.83;3.23;;;21.10;68.00;;;;;;5048405;28;20449;-66
2022/05/13 11:03:37;;;;;;;3.70;3.40;;;21.10;66.30;;;;;;5048414;28;20456;-66
2022/05/13 11:06:28;;;;;;;5.53;5.07;;;20.90;64.30;;;;;;5051139;28;20439;-66
2022/05/13 11:09:22;;;;;;;2.53;2.43;;;20.80;65.90;;;;;;5048539;28;20420;-69
2022/05/13 11:11:48;;;;;;;5.83;4.70;;;20.80;65.80;;;;;;5061873;28;20420;-66
2022/05/13 11:14:45;;;;;;;3.33;3.03;;;20.70;66.00;;;;;;5066685;28;20772;-66
2022/05/13 11:17:22;;;;;;;3.43;2.90;;;20.50;65.50;;;;;;5050365;28;20434;-66
2022/05/13 11:20:23;;;;;;;3.50;3.20;;;20.70;70.30;;;;;;5053492;28;21034;-66
2022/05/13 11:22:58;;;;;;;5.13;4.80;;;20.80;65.70;;;;;;5038315;28;20546;-66
2022/05/13 11:28:14;;;;;;;6.00;5.70;;;20.70;65.80;;;;;;5053733;28;20454;-66
2022/05/13 11:31:00;;;;;;;3.70;3.50;;;20.60;66.60;;;;;;5060009;28;20514;-66
2022/05/13 11:33:51;;;;;;;3.87;3.50;;;20.40;65.10;;;;;;5024801;28;20593;-66
2022/05/13 11:36:26;;;;;;;3.40;3.10;;;20.30;65.80;;;;;;5024502;28;20532;-67
2022/05/13 11:39:09;;;;;;;4.17;3.97;;;20.20;68.20;;;;;;5064457;28;20976;-69
2022/05/13 11:41:43;;;;;;;3.03;2.83;;;20.20;69.70;;;;;;5033452;28;20405;-66
2022/05/13 11:44:10;;;;;;;2.97;2.87;;;20.20;67.90;;;;;;5055035;28;20921;-66
2022/05/13 11:47:07;;;;;;;3.40;3.20;;;20.20;68.20;;;;;;5053425;28;20415;-66
2022/05/13 11:49:36;;;;;;;3.80;3.47;;;20.20;67.90;;;;;;5053507;28;20446;-66
2022/05/13 11:52:11;;;;;;;3.37;3.10;;;20.20;68.60;;;;;;5045436;28;20885;-66
2022/05/13 11:54:39;;;;;;;4.07;2.93;;;20.40;71.60;;;;;;5063126;28;21237;-66
2022/05/13 11:57:16;;;;;;;4.17;3.97;;;20.40;71.10;;;;;;5051541;28;20989;-66
2022/05/13 11:59:48;;;;;;;3.50;3.30;;;20.50;69.00;;;;;;5066024;28;20531;-67
2022/05/13 12:02:33;;;;;;;5.43;3.57;;;20.70;70.50;;;;;;5047505;28;20471;-66
2022/05/13 12:05:24;;;;;;;3.83;3.23;;;20.70;69.20;;;;;;5051992;28;20466;-66
2022/05/13 12:08:07;;;;;;;4.77;3.63;;;20.90;70.40;;;;;;5052295;28;20495;-66
2022/05/13 12:10:57;;;;;;;2.90;2.70;;;21.10;68.90;;;;;;5052966;28;20728;-66
2022/05/13 12:13:34;;;;;;;3.00;2.80;;;21.30;71.70;;;;;;5050733;28;20512;-66
2022/05/13 12:16:28;;;;;;;4.47;2.90;;;21.50;68.50;;;;;;5050560;28;21002;-66
2022/05/13 12:19:18;;;;;;;3.90;3.60;;;21.50;66.60;;;;;;5052583;28;20420;-66
2022/05/13 12:22:12;;;;;;;4.47;3.77;;;21.50;66.50;;;;;;5052224;28;20396;-66
2022/05/13 12:25:07;;;;;;;4.43;4.03;;;21.50;66.70;;;;;;5052797;28;20514;-66
2022/05/13 12:28:01;;;;;;;6.20;5.70;;;21.40;65.30;;;;;;5054837;28;20416;-66
2022/05/13 12:30:32;;;;;;;6.70;4.60;;;21.20;67.70;;;;;;5051722;28;20416;-66
2022/05/13 12:39:10;;;;;;;4.50;4.20;;;20.90;69.00;;;;;;5052685;28;20400;-66
2022/05/13 12:41:50;;;;;;;6.27;4.50;;;20.70;67.90;;;;;;5052805;28;20427;-66
2022/05/13 12:44:31;;;;;;;4.90;4.60;;;20.70;68.90;;;;;;5032169;28;20771;-66
2022/05/13 12:47:18;;;;;;;5.10;4.80;;;20.70;69.50;;;;;;5035031;28;20755;-70
2022/05/13 12:49:55;;;;;;;4.93;4.50;;;20.70;71.10;;;;;;5049555;28;20840;-67
2022/05/13 12:52:27;;;;;;;5.70;5.30;;;20.80;70.90;;;;;;5063202;28;20427;-66
2022/05/13 12:55:08;;;;;;;5.50;4.97;;;20.80;67.30;;;;;;5072569;28;20850;-66
2022/05/13 12:57:39;;;;;;;7.07;4.83;;;20.80;69.60;;;;;;5062837;28;20446;-66
2022/05/13 13:00:33;;;;;;;5.50;5.10;;;20.90;72.10;;;;;;5051565;28;20396;-66
2022/05/13 13:03:01;;;;;;;5.13;4.70;;;21.00;71.30;;;;;;5051777;28;20932;-66
2022/05/13 13:05:35;;;;;;;5.77;5.27;;;21.10;67.70;;;;;;5052485;28;20760;-65
2022/05/13 13:08:16;;;;;;;6.63;6.23;;;21.10;67.90;;;;;;5051736;28;20396;-66
2022/05/13 13:10:55;;;;;;;6.17;5.67;;;21.10;67.90;;;;;;5052384;28;20484;-65
2022/05/13 13:13:44;;;;;;;7.50;6.93;;;21.10;70.60;;;;;;5051777;28;20420;-66
2022/05/13 13:16:37;;;;;;;5.77;5.43;;;21.20;71.30;;;;;;5031506;28;20842;-65
2022/05/13 13:19:11;;;;;;;5.60;5.10;;;21.10;68.20;;;;;;5030845;28;20940;-65
2022/05/13 13:21:37;;;;;;;4.47;4.07;;;21.10;67.60;;;;;;5046950;28;20808;-65
2022/05/13 13:24:13;;;;;;;5.33;4.90;;;21.20;68.10;;;;;;5054281;28;20784;-70
2022/05/13 13:26:40;;;;;;;5.70;4.67;;;21.30;70.00;;;;;;5052257;28;20408;-66
2022/05/13 13:29:06;;;;;;;5.50;5.00;;;21.30;65.90;;;;;;5053954;28;20416;-67
2022/05/13 13:31:39;;;;;;;5.73;5.13;;;21.20;69.30;;;;;;5054857;28;20423;-66
2022/05/13 13:34:05;;;;;;;5.40;4.90;;;21.10;67.30;;;;;;5053776;28;20903;-66
2022/05/13 13:36:33;;;;;;;4.90;4.60;;;21.10;67.30;;;;;;5054164;28;20506;-66